Time;durP1;ratioP1;P1;durP2;ratioP2;P2;SDS_P1;SDS_P2;PMS_P1;PMS_P2;Temp;Humidity;BMP_temperature;BMP_pressure;BME280_temperature;BME280_humidity;BME280_pressure;Samples;Min_cycle;Max_cycle;Signal;HPM_P1;HPM_P2
2021/01/04 00:01:51;;;;;;;23.77;9.35;;;4.10;99.90;;;;;;5050983;28;20028;-82
2021/01/04 00:04:41;;;;;;;27.88;8.57;;;4.00;99.90;;;;;;5050790;28;20031;-82
2021/01/04 00:07:43;;;;;;;24.53;9.43;;;4.00;99.90;;;;;;5051655;28;20021;-81
2021/01/04 00:10:08;;;;;;;;;;;4.00;99.90;;;;;;5031014;28;20433;-81
2021/01/04 00:12:49;;;;;;;30.23;8.63;;;4.00;99.90;;;;;;5030555;28;19950;-81
2021/01/04 00:15:36;;;;;;;21.63;8.27;;;4.00;99.90;;;;;;5045525;28;20035;-82
2021/01/04 00:18:08;;;;;;;21.48;6.53;;;3.90;99.90;;;;;;5054051;28;20041;-83
2021/01/04 00:20:58;;;;;;;24.20;8.50;;;4.00;99.90;;;;;;5054569;28;20052;-83
2021/01/04 00:23:45;;;;;;;25.08;8.05;;;4.00;99.90;;;;;;5053946;28;20028;-82
2021/01/04 00:26:20;;;;;;;24.48;9.80;;;4.00;99.90;;;;;;5053925;28;20021;-81
2021/01/04 00:28:46;;;;;;;22.23;7.78;;;4.00;99.90;;;;;;5053877;28;20078;-82
2021/01/04 00:31:19;;;;;;;23.45;9.20;;;4.00;99.90;;;;;;5053618;28;20032;-81
2021/01/04 00:33:52;;;;;;;17.20;8.32;;;4.10;99.90;;;;;;5071466;28;20385;-81
2021/01/04 00:36:31;;;;;;;27.55;9.40;;;4.10;99.90;;;;;;5033951;28;20139;-81
2021/01/04 00:39:33;;;;;;;25.02;8.57;;;4.00;99.90;;;;;;5065716;28;20029;-81
2021/01/04 00:42:05;;;;;;;17.77;7.28;;;4.10;99.90;;;;;;5054221;28;20027;-83
2021/01/04 00:44:40;;;;;;;21.38;8.52;;;4.00;99.90;;;;;;5053523;28;20048;-82
2021/01/04 00:47:15;;;;;;;23.50;8.40;;;4.10;99.90;;;;;;5053150;28;20035;-81
2021/01/04 00:49:46;;;;;;;22.98;8.35;;;4.10;99.90;;;;;;5053546;28;20094;-82
2021/01/04 00:52:15;;;;;;;;;;;4.10;99.90;;;;;;5054307;28;20025;-82
2021/01/04 00:54:58;;;;;;;24.60;8.40;;;4.10;99.90;;;;;;5071380;28;19950;-81
2021/01/04 00:58:15;;;;;;;14.48;7.53;;;4.10;99.90;;;;;;5071084;28;20052;-81
2021/01/04 01:00:51;;;;;;;19.25;7.40;;;4.10;99.90;;;;;;4973796;28;20129;-81
2021/01/04 01:03:28;;;;;;;24.90;8.13;;;4.10;99.90;;;;;;4995401;28;20026;-81
2021/01/04 01:06:22;;;;;;;19.92;7.40;;;4.20;99.90;;;;;;4993414;28;20638;-81
2021/01/04 01:08:53;;;;;;;21.48;7.55;;;4.20;99.90;;;;;;4989658;28;20062;-82
2021/01/04 01:11:34;;;;;;;17.55;6.78;;;4.20;99.90;;;;;;4989763;28;20038;-81
2021/01/04 01:14:15;;;;;;;19.00;8.02;;;4.30;99.90;;;;;;4989589;28;20058;-81
2021/01/04 01:17:19;;;;;;;32.13;9.13;;;4.30;99.90;;;;;;4989216;28;20081;-82
2021/01/04 01:19:49;;;;;;;27.08;8.70;;;4.30;99.90;;;;;;4986005;28;20039;-81
2021/01/04 01:22:31;;;;;;;32.13;7.85;;;4.30;99.90;;;;;;4954222;28;20090;-81
2021/01/04 01:25:03;;;;;;;;;;;4.30;99.90;;;;;;4971979;28;20034;-81
2021/01/04 01:27:38;;;;;;;21.10;7.40;;;4.30;99.90;;;;;;4972721;28;19909;-81
2021/01/04 01:30:25;;;;;;;20.15;7.78;;;4.30;99.90;;;;;;4986113;28;20435;-81
2021/01/04 01:33:12;;;;;;;16.60;6.75;;;4.30;99.90;;;;;;4986813;28;20023;-81
2021/01/04 01:35:56;;;;;;;18.05;7.25;;;4.30;99.90;;;;;;5019859;28;20056;-83
2021/01/04 01:38:34;;;;;;;22.65;8.30;;;4.40;99.90;;;;;;5062022;28;20025;-82
2021/01/04 01:40:59;;;;;;;18.40;6.53;;;4.40;99.90;;;;;;5070676;28;20052;-81
2021/01/04 01:43:57;;;;;;;21.80;7.35;;;4.40;99.90;;;;;;5070146;28;20068;-81
2021/01/04 01:46:48;;;;;;;19.10;6.72;;;4.40;99.90;;;;;;5031456;28;20037;-81
2021/01/04 01:49:39;;;;;;;20.73;7.63;;;4.40;99.90;;;;;;5044122;28;20170;-81
2021/01/04 01:52:29;;;;;;;16.30;7.55;;;4.50;99.90;;;;;;5052307;28;20421;-83
2021/01/04 01:55:10;;;;;;;19.65;6.57;;;4.50;99.90;;;;;;5070053;28;20489;-83
2021/01/04 01:57:53;;;;;;;23.42;7.65;;;4.50;99.90;;;;;;5052032;28;20115;-82
2021/01/04 02:00:38;;;;;;;18.80;6.85;;;4.50;99.90;;;;;;5052365;28;20060;-83
2021/01/04 02:03:09;;;;;;;17.83;7.57;;;4.50;99.90;;;;;;5067458;28;20070;-83
2021/01/04 02:06:06;;;;;;;16.35;5.68;;;4.50;99.90;;;;;;5052586;28;20401;-82
2021/01/04 02:08:39;;;;;;;15.70;6.20;;;4.50;99.90;;;;;;5052094;28;20048;-83
2021/01/04 02:11:10;;;;;;;22.10;6.03;;;4.60;99.90;;;;;;5051798;28;20123;-83
2021/01/04 02:13:41;;;;;;;;;;;4.60;99.90;;;;;;5051426;28;20031;-83
2021/01/04 02:16:16;;;;;;;30.75;7.28;;;4.50;99.90;;;;;;5050562;28;20371;-81
2021/01/04 02:19:18;;;;;;;23.45;6.72;;;4.60;99.90;;;;;;5057253;28;20116;-81
2021/01/04 02:22:08;;;;;;;20.77;6.93;;;4.60;99.90;;;;;;5051817;28;20166;-83
2021/01/04 02:24:34;;;;;;;24.75;7.70;;;4.60;99.90;;;;;;5051783;28;20041;-82
2021/01/04 02:27:16;;;;;;;21.95;7.13;;;4.60;99.90;;;;;;5051445;28;20077;-81
2021/01/04 02:29:43;;;;;;;24.25;6.95;;;4.60;99.90;;;;;;5051208;28;20412;-81
2021/01/04 02:32:09;;;;;;;16.23;6.25;;;4.60;99.90;;;;;;5042889;28;20489;-81
2021/01/04 02:34:52;;;;;;;17.20;6.43;;;4.60;99.90;;;;;;5051527;28;20040;-81
2021/01/04 02:37:19;;;;;;;20.88;6.35;;;4.60;99.90;;;;;;5068907;28;20063;-81
2021/01/04 02:39:53;;;;;;;19.88;6.22;;;4.70;99.90;;;;;;5052105;28;20016;-81
2021/01/04 02:42:36;;;;;;;19.17;7.28;;;4.70;99.90;;;;;;5068793;28;20029;-81
2021/01/04 02:45:17;;;;;;;15.55;6.22;;;4.70;99.90;;;;;;5052493;28;20059;-83
2021/01/04 02:48:09;;;;;;;19.55;6.07;;;4.70;99.90;;;;;;5051549;28;20025;-83
2021/01/04 02:51:04;;;;;;;17.30;6.40;;;4.70;99.90;;;;;;5051131;28;20037;-81
2021/01/04 02:53:35;;;;;;;26.40;6.22;;;4.70;99.90;;;;;;5050836;28;20104;-82
2021/01/04 02:56:10;;;;;;;;;;;4.70;99.90;;;;;;5063757;28;20024;-82
2021/01/04 02:59:04;;;;;;;17.33;5.85;;;4.80;99.90;;;;;;5063677;28;19931;-83
2021/01/04 03:01:50;;;;;;;20.42;6.25;;;4.80;99.90;;;;;;5051870;28;20158;-83
2021/01/04 03:04:19;;;;;;;19.88;6.43;;;4.70;99.90;;;;;;5051154;28;20039;-83
2021/01/04 03:06:45;;;;;;;14.30;6.18;;;4.80;99.90;;;;;;5051534;28;20091;-82
2021/01/04 03:09:11;;;;;;;19.63;5.50;;;4.80;99.90;;;;;;5051476;28;20127;-83
2021/01/04 03:11:42;;;;;;;19.63;5.15;;;4.80;99.90;;;;;;5051079;28;20492;-82
2021/01/04 03:14:14;;;;;;;;;;;4.80;99.90;;;;;;5069905;28;20028;-81
2021/01/04 03:16:51;;;;;;;;;;;4.80;99.90;;;;;;5051633;28;20357;-81
2021/01/04 03:19:21;;;;;;;18.98;6.18;;;4.80;99.90;;;;;;5050979;28;20005;-81
2021/01/04 03:21:59;;;;;;;14.07;5.25;;;4.80;99.90;;;;;;5051501;28;20090;-82
2021/01/04 03:24:26;;;;;;;16.52;6.38;;;4.80;99.90;;;;;;5050640;28;20585;-82
2021/01/04 03:26:59;;;;;;;15.90;5.28;;;4.80;99.90;;;;;;5051393;28;20054;-82
2021/01/04 03:29:28;;;;;;;16.60;5.20;;;4.80;99.90;;;;;;5051682;28;20060;-82
2021/01/04 03:31:53;;;;;;;17.75;5.55;;;4.80;99.90;;;;;;5051164;28;20032;-83
2021/01/04 03:34:19;;;;;;;12.73;4.78;;;4.80;99.90;;;;;;5051089;28;20133;-82
2021/01/04 03:36:44;;;;;;;11.88;5.18;;;4.80;99.90;;;;;;5050615;28;20032;-81
2021/01/04 03:39:10;;;;;;;11.48;5.13;;;4.80;99.90;;;;;;5050733;28;20105;-81
2021/01/04 03:41:35;;;;;;;14.07;5.70;;;4.80;99.90;;;;;;5050758;28;20036;-81
2021/01/04 03:44:01;;;;;;;11.05;4.53;;;4.80;99.90;;;;;;5050765;28;20135;-81
2021/01/04 03:46:27;;;;;;;13.50;4.75;;;4.80;99.90;;;;;;5051494;28;20032;-81
2021/01/04 03:48:53;;;;;;;11.52;4.28;;;4.80;99.90;;;;;;5051687;28;20044;-81
2021/01/04 03:51:18;;;;;;;16.02;4.65;;;4.80;99.90;;;;;;5058008;28;20052;-81
2021/01/04 03:53:44;;;;;;;13.25;5.10;;;4.80;99.90;;;;;;5072213;28;20029;-81
2021/01/04 03:56:19;;;;;;;13.93;5.47;;;4.80;99.90;;;;;;5055033;28;20024;-82
2021/01/04 03:58:45;;;;;;;13.85;4.50;;;4.80;99.90;;;;;;5054643;28;20107;-83
2021/01/04 04:01:10;;;;;;;14.57;5.07;;;4.80;99.90;;;;;;5051037;28;20129;-81
2021/01/04 04:03:36;;;;;;;11.70;4.28;;;4.80;99.90;;;;;;5017323;28;20038;-82
2021/01/04 04:06:02;;;;;;;15.43;3.92;;;4.80;99.90;;;;;;5013773;28;20041;-81
2021/01/04 04:08:27;;;;;;;13.55;3.75;;;4.80;99.90;;;;;;5013431;28;20056;-82
2021/01/04 04:10:53;;;;;;;10.70;4.68;;;4.80;99.90;;;;;;5013624;28;20044;-82
2021/01/04 04:13:18;;;;;;;8.75;3.55;;;4.80;99.90;;;;;;5025893;28;20034;-81
2021/01/04 04:15:45;;;;;;;13.05;4.35;;;4.80;99.90;;;;;;4993869;28;20516;-82
2021/01/04 04:18:11;;;;;;;8.90;3.33;;;4.70;99.90;;;;;;5010332;28;20129;-82
2021/01/04 04:20:36;;;;;;;14.57;3.13;;;4.80;99.90;;;;;;4993966;28;20108;-81
2021/01/04 04:23:02;;;;;;;5.28;3.08;;;4.70;99.90;;;;;;4993735;28;20034;-81
2021/01/04 04:25:28;;;;;;;8.90;3.60;;;4.70;99.90;;;;;;4993855;28;20030;-81
2021/01/04 04:27:55;;;;;;;13.25;4.15;;;4.70;99.90;;;;;;4993496;28;20468;-81
2021/01/04 04:30:23;;;;;;;8.45;4.03;;;4.60;99.90;;;;;;4993719;28;20046;-80
2021/01/04 04:32:59;;;;;;;9.18;3.55;;;4.60;99.90;;;;;;5017142;28;20029;-80
2021/01/04 04:35:26;;;;;;;9.27;2.92;;;4.60;99.90;;;;;;5043497;28;20047;-82
2021/01/04 04:37:52;;;;;;;12.35;3.55;;;4.60;99.90;;;;;;5053567;28;20025;-81
2021/01/04 04:40:26;;;;;;;8.00;3.10;;;4.60;99.90;;;;;;5072260;28;20454;-82
2021/01/04 04:43:12;;;;;;;8.45;3.33;;;4.60;99.90;;;;;;5039424;28;20025;-81
2021/01/04 04:45:40;;;;;;;13.65;3.45;;;4.70;99.90;;;;;;5073128;28;20110;-80
2021/01/04 04:48:48;;;;;;;8.65;2.78;;;4.70;99.90;;;;;;5069504;28;20021;-80
2021/01/04 04:51:30;;;;;;;10.13;3.03;;;4.70;99.90;;;;;;5013148;28;20042;-81
2021/01/04 04:53:59;;;;;;;16.77;3.67;;;4.70;99.90;;;;;;5014442;28;20031;-83
2021/01/04 04:56:36;;;;;;;10.98;2.95;;;4.70;99.90;;;;;;5014339;28;20042;-81
2021/01/04 04:59:50;;;;;;;6.90;2.83;;;4.70;99.90;;;;;;5015141;28;20112;-79
2021/01/04 05:02:34;;;;;;;14.55;2.95;;;4.70;99.90;;;;;;4937293;29;20072;-81
2021/01/04 05:05:17;;;;;;;12.02;3.25;;;4.70;99.90;;;;;;4922156;29;20075;-82
2021/01/04 05:07:53;;;;;;;7.78;2.42;;;4.80;99.90;;;;;;4938083;29;20024;-82
2021/01/04 05:10:20;;;;;;;15.60;2.83;;;4.80;99.90;;;;;;4937912;29;20093;-81
2021/01/04 05:13:04;;;;;;;4.15;1.60;;;4.80;99.90;;;;;;4937977;29;20075;-82
2021/01/04 05:15:58;;;;;;;9.55;2.90;;;4.80;99.90;;;;;;4922709;29;20176;-81
2021/01/04 05:19:12;;;;;;;5.78;2.67;;;4.80;99.90;;;;;;4898047;29;20129;-81
2021/01/04 05:21:55;;;;;;;8.90;3.92;;;4.80;99.90;;;;;;4914057;29;20490;-82
2021/01/04 05:24:56;;;;;;;11.90;2.15;;;4.80;99.90;;;;;;4894334;29;20036;-82
2021/01/04 05:27:55;;;;;;;9.15;2.45;;;4.80;99.90;;;;;;4901453;29;20105;-81
2021/01/04 05:30:30;;;;;;;6.82;2.05;;;4.80;99.90;;;;;;4967787;28;20054;-81
2021/01/04 05:33:34;;;;;;;7.53;2.72;;;4.80;99.90;;;;;;4988477;28;20069;-81
2021/01/04 05:36:25;;;;;;;8.85;2.97;;;4.80;99.90;;;;;;5027724;28;20037;-80
2021/01/04 05:39:20;;;;;;;12.60;2.60;;;4.80;99.90;;;;;;4999968;28;20040;-80
2021/01/04 05:41:57;;;;;;;9.73;2.95;;;4.70;99.90;;;;;;5020058;28;20072;-80
2021/01/04 05:44:32;;;;;;;13.75;2.30;;;4.70;99.90;;;;;;5009732;28;20050;-80
2021/01/04 05:47:22;;;;;;;4.70;1.95;;;4.60;99.90;;;;;;5003887;28;20368;-81
2021/01/04 05:50:06;;;;;;;10.50;2.70;;;4.60;99.90;;;;;;5008635;28;20139;-80
2021/01/04 05:52:35;;;;;;;8.57;2.05;;;4.50;99.90;;;;;;5004300;28;20052;-80
2021/01/04 05:55:01;;;;;;;8.73;2.05;;;4.40;99.90;;;;;;5016926;28;20022;-80
2021/01/04 05:57:28;;;;;;;13.77;4.10;;;4.30;99.90;;;;;;5039178;28;20401;-81
2021/01/04 05:59:58;;;;;;;4.68;1.98;;;4.20;99.90;;;;;;5051285;28;20021;-81
2021/01/04 06:02:35;;;;;;;8.13;2.10;;;4.20;99.90;;;;;;5050839;28;20477;-81
2021/01/04 06:05:15;;;;;;;10.50;3.15;;;4.10;99.90;;;;;;5050883;28;20032;-80
2021/01/04 06:07:45;;;;;;;7.38;1.88;;;4.10;99.90;;;;;;5058651;28;20477;-81
2021/01/04 06:10:30;;;;;;;3.83;2.13;;;4.10;99.90;;;;;;5052085;28;20618;-80
2021/01/04 06:12:56;;;;;;;9.30;2.30;;;4.00;99.90;;;;;;5049475;28;20029;-80
2021/01/04 06:15:36;;;;;;;11.63;2.70;;;4.00;99.90;;;;;;5054690;28;20126;-80
2021/01/04 06:18:09;;;;;;;9.80;2.10;;;4.00;99.90;;;;;;5069199;28;20054;-81
2021/01/04 06:20:44;;;;;;;12.35;3.20;;;4.00;99.90;;;;;;5049732;28;20063;-81
2021/01/04 06:23:26;;;;;;;5.10;2.83;;;3.90;99.90;;;;;;5069273;28;20311;-81
2021/01/04 06:25:56;;;;;;;9.45;2.95;;;3.90;99.90;;;;;;5065627;28;20028;-80
2021/01/04 06:28:22;;;;;;;13.77;2.38;;;3.90;99.90;;;;;;5051269;28;20075;-80
2021/01/04 06:31:01;;;;;;;8.20;3.00;;;3.90;99.90;;;;;;5050242;28;20052;-81
2021/01/04 06:33:29;;;;;;;15.45;3.65;;;3.90;99.90;;;;;;5051239;28;20032;-81
2021/01/04 06:36:14;;;;;;;6.60;2.70;;;3.90;99.90;;;;;;5051384;28;20028;-80
2021/01/04 06:38:41;;;;;;;4.82;2.95;;;3.80;99.90;;;;;;5057274;28;20115;-80
2021/01/04 06:41:32;;;;;;;4.75;3.00;;;3.80;99.90;;;;;;5051651;28;20424;-80
2021/01/04 06:44:19;;;;;;;5.75;3.60;;;3.80;99.90;;;;;;5038699;28;20044;-80
2021/01/04 06:46:50;;;;;;;7.53;3.47;;;3.80;99.90;;;;;;5050913;28;20127;-80
2021/01/04 06:49:19;;;;;;;13.45;4.57;;;3.80;99.90;;;;;;5049614;28;20037;-80
2021/01/04 06:52:03;;;;;;;3.50;2.85;;;3.80;99.90;;;;;;5054337;28;20488;-81
2021/01/04 06:54:51;;;;;;;5.47;3.22;;;3.80;99.90;;;;;;5052986;28;20044;-80
2021/01/04 06:57:31;;;;;;;7.00;2.72;;;3.80;99.90;;;;;;5051285;28;20017;-80
2021/01/04 07:00:16;;;;;;;11.98;2.90;;;3.80;99.90;;;;;;5021251;28;20025;-80
2021/01/04 07:03:06;;;;;;;7.82;2.50;;;3.80;99.90;;;;;;5014324;28;20029;-80
2021/01/04 07:05:59;;;;;;;4.15;2.42;;;3.80;99.90;;;;;;5000598;28;20038;-80
2021/01/04 07:09:03;;;;;;;5.15;3.10;;;3.80;99.90;;;;;;5024834;28;20036;-80
2021/01/04 07:11:36;;;;;;;4.88;3.38;;;3.70;99.90;;;;;;5025233;28;20116;-80
2021/01/04 07:14:41;;;;;;;3.97;2.58;;;3.70;99.90;;;;;;5016110;28;20512;-81
2021/01/04 07:17:16;;;;;;;5.90;2.85;;;3.70;99.90;;;;;;5008029;28;20029;-80
2021/01/04 07:20:25;;;;;;;6.15;3.70;;;3.70;99.90;;;;;;5003063;28;20499;-80
2021/01/04 07:23:06;;;;;;;10.68;3.58;;;3.70;99.90;;;;;;4964831;28;20487;-81
2021/01/04 07:25:35;;;;;;;8.93;3.67;;;3.70;99.90;;;;;;4955806;28;20061;-80
2021/01/04 07:28:03;;;;;;;10.32;2.83;;;3.70;99.90;;;;;;4973213;28;20048;-80
2021/01/04 07:30:45;;;;;;;5.80;3.35;;;3.70;99.90;;;;;;4969515;28;20046;-81
2021/01/04 07:33:25;;;;;;;6.20;3.20;;;3.70;99.90;;;;;;4994878;28;20359;-80
2021/01/04 07:36:12;;;;;;;9.85;3.83;;;3.60;99.90;;;;;;4990968;28;20034;-81
2021/01/04 07:39:05;;;;;;;7.60;3.40;;;3.60;99.90;;;;;;4995257;28;20042;-80
2021/01/04 07:42:08;;;;;;;5.18;2.60;;;3.60;99.90;;;;;;4990127;28;20100;-80
2021/01/04 07:44:45;;;;;;;7.00;3.17;;;3.60;99.90;;;;;;4991591;28;20137;-81
2021/01/04 07:47:32;;;;;;;6.65;2.78;;;3.60;99.90;;;;;;4976451;28;20093;-81
2021/01/04 07:50:19;;;;;;;5.38;2.72;;;3.60;99.90;;;;;;4972931;28;20050;-81
2021/01/04 07:53:15;;;;;;;15.80;5.65;;;3.60;99.90;;;;;;4973610;28;20053;-81
2021/01/04 07:56:00;;;;;;;7.80;4.05;;;3.60;99.90;;;;;;5007581;28;20055;-79
2021/01/04 07:58:45;;;;;;;4.38;2.90;;;3.60;99.90;;;;;;5007188;28;20038;-80
2021/01/04 08:01:38;;;;;;;3.13;2.35;;;3.60;99.90;;;;;;5011800;28;20037;-81
2021/01/04 08:04:34;;;;;;;4.32;2.67;;;3.60;99.90;;;;;;5011300;28;21885;-80
2021/01/04 08:07:23;;;;;;;5.05;2.75;;;3.50;99.90;;;;;;5016778;28;20045;-80
2021/01/04 08:09:58;;;;;;;3.15;2.22;;;3.50;99.90;;;;;;5028141;28;20480;-81
2021/01/04 08:12:59;;;;;;;5.45;3.35;;;3.50;99.90;;;;;;5030012;28;20498;-82
2021/01/04 08:15:42;;;;;;;7.85;3.13;;;3.50;99.90;;;;;;5028037;28;20127;-80
2021/01/04 08:18:08;;;;;;;4.78;2.60;;;3.50;99.90;;;;;;5027873;28;20033;-81
2021/01/04 08:20:37;;;;;;;5.88;2.80;;;3.50;99.90;;;;;;5024617;28;20397;-81
2021/01/04 08:23:30;;;;;;;3.28;2.45;;;3.50;99.90;;;;;;5026777;28;20065;-81
2021/01/04 08:26:20;;;;;;;3.17;1.92;;;3.60;99.90;;;;;;5026795;28;20025;-81
2021/01/04 08:29:30;;;;;;;7.43;3.58;;;3.50;99.90;;;;;;5025909;28;20120;-81
2021/01/04 08:32:25;;;;;;;3.83;2.35;;;3.60;99.90;;;;;;4986549;28;20065;-81
2021/01/04 08:34:51;;;;;;;3.65;2.40;;;3.50;99.90;;;;;;4986721;28;20058;-81
2021/01/04 08:37:37;;;;;;;6.78;2.53;;;3.50;99.90;;;;;;4987956;28;20031;-81
2021/01/04 08:40:30;;;;;;;5.10;3.05;;;3.50;99.90;;;;;;4988779;28;20062;-81
2021/01/04 08:43:10;;;;;;;3.33;2.28;;;3.50;99.90;;;;;;4987525;28;20464;-81
2021/01/04 08:45:47;;;;;;;4.05;2.78;;;3.60;99.90;;;;;;4948336;28;20121;-80
2021/01/04 08:48:34;;;;;;;4.75;2.85;;;3.50;99.90;;;;;;4951144;28;20030;-81
2021/01/04 08:51:12;;;;;;;6.13;3.85;;;3.50;99.90;;;;;;4968601;28;20125;-81
2021/01/04 08:53:50;;;;;;;6.72;3.40;;;3.50;99.90;;;;;;4966809;28;20244;-81
2021/01/04 08:56:26;;;;;;;7.03;3.00;;;3.60;99.90;;;;;;4970642;28;20129;-81
2021/01/04 08:58:52;;;;;;;7.78;3.08;;;3.60;99.90;;;;;;4969009;28;20511;-81
2021/01/04 09:01:25;;;;;;;10.95;2.90;;;3.60;99.90;;;;;;4951669;28;20067;-81
2021/01/04 09:04:03;;;;;;;5.05;3.03;;;3.60;99.90;;;;;;4950854;28;20749;-82
2021/01/04 09:06:32;;;;;;;6.65;3.50;;;3.60;99.90;;;;;;4964009;28;20027;-82
2021/01/04 09:09:16;;;;;;;4.25;2.50;;;3.70;99.90;;;;;;4998083;28;20087;-81
2021/01/04 09:11:55;;;;;;;7.55;3.30;;;3.60;99.90;;;;;;5026859;28;20068;-81
2021/01/04 09:14:30;;;;;;;6.63;2.58;;;3.60;99.90;;;;;;4984835;28;20026;-81
2021/01/04 09:16:56;;;;;;;5.80;3.38;;;3.70;99.90;;;;;;4970301;28;20499;-82
2021/01/04 09:19:39;;;;;;;4.20;2.40;;;3.60;99.90;;;;;;4984882;28;20099;-81
2021/01/04 09:22:12;;;;;;;7.65;2.67;;;3.70;99.90;;;;;;4968812;28;20027;-80
2021/01/04 09:24:40;;;;;;;12.00;3.55;;;3.70;99.90;;;;;;4970033;28;20182;-81
2021/01/04 09:27:30;;;;;;;5.03;2.60;;;3.70;99.90;;;;;;4965393;28;20035;-81
2021/01/04 09:30:00;;;;;;;6.95;2.92;;;3.70;99.90;;;;;;4963513;28;20090;-82
2021/01/04 09:32:35;;;;;;;5.15;2.95;;;3.70;99.90;;;;;;4949357;28;20053;-81
2021/01/04 09:35:03;;;;;;;5.50;2.85;;;3.70;99.90;;;;;;4964373;28;20467;-81
2021/01/04 09:37:29;;;;;;;4.43;2.50;;;3.70;99.90;;;;;;4965522;28;20113;-81
2021/01/04 09:40:03;;;;;;;8.20;3.17;;;3.70;99.90;;;;;;4945642;28;20042;-81
2021/01/04 09:42:30;;;;;;;7.10;2.28;;;3.70;99.90;;;;;;4962636;28;20035;-81
2021/01/04 09:45:08;;;;;;;4.60;2.20;;;3.70;99.90;;;;;;4970552;28;20057;-81
2021/01/04 09:47:59;;;;;;;3.45;2.35;;;3.80;99.90;;;;;;4983514;28;20030;-81
2021/01/04 09:50:38;;;;;;;7.33;3.10;;;3.80;99.90;;;;;;4986735;28;20125;-81
2021/01/04 09:53:24;;;;;;;3.65;2.20;;;3.70;99.90;;;;;;5000111;28;20388;-81
2021/01/04 09:55:50;;;;;;;3.47;1.95;;;3.80;99.90;;;;;;4996481;28;20399;-81
2021/01/04 09:58:20;;;;;;;8.13;2.95;;;3.80;99.90;;;;;;5018972;28;20033;-81
2021/01/04 10:00:48;;;;;;;10.70;2.60;;;3.80;99.90;;;;;;5043883;28;20033;-81
2021/01/04 10:03:22;;;;;;;6.60;3.35;;;3.90;99.90;;;;;;5042412;28;20434;-81
2021/01/04 10:05:50;;;;;;;5.82;2.45;;;3.80;99.90;;;;;;5042628;28;20131;-81
2021/01/04 10:08:20;;;;;;;3.30;1.65;;;3.80;99.90;;;;;;5043985;28;20025;-81
2021/01/04 10:11:03;;;;;;;4.28;1.73;;;3.80;99.90;;;;;;5045716;28;20067;-81
2021/01/04 10:13:31;;;;;;;4.43;2.40;;;3.70;99.90;;;;;;5040114;28;20037;-81
2021/01/04 10:16:00;;;;;;;6.90;2.08;;;3.80;99.90;;;;;;5044993;28;20021;-80
2021/01/04 10:18:37;;;;;;;5.75;2.13;;;3.80;99.90;;;;;;5040067;28;20037;-81
2021/01/04 10:21:05;;;;;;;5.70;2.75;;;3.80;99.90;;;;;;5041693;28;20029;-81
2021/01/04 10:23:36;;;;;;;5.45;2.40;;;3.80;99.90;;;;;;5038077;28;20053;-82
2021/01/04 10:26:03;;;;;;;4.72;2.53;;;3.80;99.90;;;;;;5040074;28;20159;-82
2021/01/04 10:28:31;;;;;;;5.57;2.63;;;3.90;99.90;;;;;;5040702;28;20499;-81
2021/01/04 10:31:10;;;;;;;8.00;1.80;;;3.80;99.90;;;;;;5042551;28;20056;-81
2021/01/04 10:33:39;;;;;;;10.20;3.50;;;3.80;99.90;;;;;;5042883;28;20069;-81
2021/01/04 10:36:13;;;;;;;9.65;2.00;;;3.80;99.90;;;;;;5043139;28;20365;-81
2021/01/04 10:38:45;;;;;;;6.00;2.50;;;3.80;99.90;;;;;;5040573;28;20495;-82
2021/01/04 10:41:12;;;;;;;;;;;3.80;99.90;;;;;;5024368;28;20238;-82
2021/01/04 10:43:38;;;;;;;8.05;2.30;;;3.90;99.90;;;;;;5041656;28;19916;-82
2021/01/04 10:46:34;;;;;;;7.00;2.58;;;3.90;99.90;;;;;;5042465;28;20068;-82
2021/01/04 10:49:05;;;;;;;5.35;2.22;;;3.90;99.90;;;;;;5042562;28;20536;-81
2021/01/04 10:51:33;;;;;;;;;;;3.90;99.90;;;;;;5042179;28;20037;-82
2021/01/04 10:53:59;;;;;;;7.43;2.05;;;3.80;99.90;;;;;;5043049;28;19920;-82
2021/01/04 10:57:00;;;;;;;8.50;2.58;;;3.80;99.90;;;;;;5057180;28;20025;-82
2021/01/04 10:59:43;;;;;;;7.20;2.17;;;3.90;99.90;;;;;;5054814;28;20032;-81
2021/01/04 11:02:09;;;;;;;4.13;2.03;;;3.90;99.90;;;;;;5050606;28;20047;-81
2021/01/04 11:04:35;;;;;;;9.20;2.53;;;3.90;99.90;;;;;;5052192;28;20020;-81
2021/01/04 11:07:04;;;;;;;4.63;2.25;;;3.90;99.90;;;;;;5046062;28;20415;-81
2021/01/04 11:09:38;;;;;;;9.65;2.80;;;3.90;99.90;;;;;;5048739;28;20102;-81
2021/01/04 11:12:08;;;;;;;5.63;2.08;;;4.00;99.90;;;;;;5050115;28;20028;-81
2021/01/04 11:14:35;;;;;;;13.03;5.77;;;3.90;99.90;;;;;;5051739;28;20071;-82
2021/01/04 11:17:11;;;;;;;5.32;2.42;;;3.90;99.90;;;;;;5045886;28;20327;-81
2021/01/04 11:19:37;;;;;;;8.48;2.53;;;4.00;99.90;;;;;;5041711;28;20028;-79
2021/01/04 11:22:15;;;;;;;5.18;2.45;;;3.90;99.90;;;;;;5040938;28;20058;-81
2021/01/04 11:24:41;;;;;;;2.42;1.48;;;3.90;99.90;;;;;;5042656;28;20036;-81
2021/01/04 11:27:08;;;;;;;4.55;2.72;;;3.80;99.90;;;;;;5040765;28;20635;-81
2021/01/04 11:29:36;;;;;;;3.00;2.10;;;3.70;99.90;;;;;;5041589;28;20041;-80
2021/01/04 11:32:02;;;;;;;6.78;3.08;;;3.70;99.90;;;;;;5043007;28;20111;-82
2021/01/04 11:34:28;;;;;;;7.55;3.10;;;3.60;99.90;;;;;;5040472;28;20100;-80
2021/01/04 11:36:53;;;;;;;8.27;3.65;;;3.50;99.90;;;;;;5035678;28;20033;-80
2021/01/04 11:39:20;;;;;;;10.88;3.22;;;3.50;99.90;;;;;;5053173;28;20114;-82
2021/01/04 11:41:46;;;;;;;8.07;2.75;;;3.50;99.90;;;;;;5041980;28;20037;-82
2021/01/04 11:44:12;;;;;;;6.05;1.98;;;3.50;99.90;;;;;;5039967;28;20056;-82
2021/01/04 11:46:37;;;;;;;4.90;3.47;;;3.40;99.90;;;;;;5043865;28;20108;-81
2021/01/04 11:49:04;;;;;;;12.10;3.25;;;3.30;99.90;;;;;;5015985;28;20105;-81
2021/01/04 11:51:30;;;;;;;6.65;3.33;;;3.30;99.90;;;;;;5007259;28;20494;-81
2021/01/04 11:53:55;;;;;;;6.88;3.05;;;3.40;99.90;;;;;;5021469;28;20037;-81
2021/01/04 11:56:22;;;;;;;15.55;3.95;;;3.30;99.90;;;;;;5010708;28;20044;-81
2021/01/04 11:58:51;;;;;;;10.95;4.15;;;3.30;99.90;;;;;;5018244;28;20037;-81
2021/01/04 12:01:18;;;;;;;3.80;2.47;;;3.30;99.90;;;;;;5005479;28;20120;-81
2021/01/04 12:03:44;;;;;;;6.82;3.22;;;3.30;99.90;;;;;;5004370;28;20063;-81
2021/01/04 12:06:11;;;;;;;12.02;4.45;;;3.20;99.90;;;;;;4983360;28;20549;-82
2021/01/04 12:08:39;;;;;;;9.63;3.78;;;3.20;99.90;;;;;;5004454;28;20430;-82
2021/01/04 12:11:06;;;;;;;8.73;3.60;;;3.20;99.90;;;;;;5002625;28;20041;-81
2021/01/04 12:13:32;;;;;;;7.78;3.28;;;3.30;99.90;;;;;;5003283;28;20032;-82
2021/01/04 12:15:59;;;;;;;6.80;3.20;;;3.20;99.90;;;;;;5021738;28;20025;-81
2021/01/04 12:18:24;;;;;;;9.63;3.97;;;3.30;99.90;;;;;;5007094;28;20060;-81
2021/01/04 12:20:50;;;;;;;7.78;3.72;;;3.30;99.90;;;;;;5029457;28;20509;-82
2021/01/04 12:23:16;;;;;;;4.78;2.95;;;3.30;99.90;;;;;;5020456;28;20132;-81
2021/01/04 12:25:42;;;;;;;6.68;3.80;;;3.30;99.90;;;;;;5019617;28;20053;-81
2021/01/04 12:28:09;;;;;;;8.43;4.03;;;3.30;99.90;;;;;;5021441;28;20124;-81
2021/01/04 12:30:35;;;;;;;9.15;3.70;;;3.30;99.90;;;;;;5026310;28;20045;-81
2021/01/04 12:33:01;;;;;;;6.20;2.92;;;3.20;99.90;;;;;;5022672;28;20035;-81
2021/01/04 12:35:27;;;;;;;4.88;3.58;;;3.30;99.90;;;;;;5021758;28;20033;-81
2021/01/04 12:37:53;;;;;;;8.07;2.97;;;3.30;99.90;;;;;;4999634;28;20092;-81
2021/01/04 12:40:21;;;;;;;9.30;4.07;;;3.30;99.90;;;;;;4982146;28;20072;-80
2021/01/04 12:42:48;;;;;;;8.43;3.50;;;3.30;99.90;;;;;;4984805;28;20034;-80
2021/01/04 12:45:15;;;;;;;4.82;2.70;;;3.30;99.90;;;;;;5003582;28;20084;-80
2021/01/04 12:47:41;;;;;;;5.55;2.88;;;3.30;99.90;;;;;;4996257;28;20145;-80
2021/01/04 12:50:07;;;;;;;10.07;3.10;;;3.30;99.90;;;;;;4984832;28;20559;-80
2021/01/04 12:52:33;;;;;;;10.63;4.03;;;3.30;99.90;;;;;;5002491;28;20034;-80
2021/01/04 12:54:58;;;;;;;4.70;3.10;;;3.40;99.90;;;;;;5017543;28;20039;-81
2021/01/04 12:57:24;;;;;;;9.45;3.92;;;3.40;99.90;;;;;;5002974;28;20978;-80
2021/01/04 12:59:50;;;;;;;8.93;2.60;;;3.40;99.90;;;;;;5002983;28;20030;-80
2021/01/04 13:02:18;;;;;;;7.43;3.42;;;3.30;99.90;;;;;;5017062;28;20066;-81
2021/01/04 13:04:44;;;;;;;16.23;3.53;;;3.40;99.90;;;;;;5006142;28;20037;-82
2021/01/04 13:07:12;;;;;;;14.45;3.55;;;3.40;99.90;;;;;;5016367;28;20091;-81
2021/01/04 13:09:39;;;;;;;5.47;3.03;;;3.40;99.90;;;;;;5033244;28;20080;-81
2021/01/04 13:12:07;;;;;;;16.10;4.93;;;3.40;99.90;;;;;;5038779;28;20028;-82
2021/01/04 13:14:33;;;;;;;10.77;2.53;;;3.50;99.90;;;;;;5039355;28;20037;-82
2021/01/04 13:16:59;;;;;;;9.20;2.75;;;3.40;99.90;;;;;;5036102;28;20131;-81
2021/01/04 13:19:29;;;;;;;9.45;2.85;;;3.40;99.90;;;;;;5040346;28;20165;-80
2021/01/04 13:21:58;;;;;;;7.05;2.60;;;3.50;99.90;;;;;;5027305;28;20528;-80
2021/01/04 13:24:26;;;;;;;3.70;2.25;;;3.40;99.90;;;;;;5020979;28;20028;-81
2021/01/04 13:26:54;;;;;;;5.63;2.70;;;3.50;99.90;;;;;;5021982;28;20045;-81
2021/01/04 13:29:28;;;;;;;4.15;2.30;;;3.50;99.90;;;;;;5037807;28;20175;-81
2021/01/04 13:32:00;;;;;;;4.90;2.47;;;3.60;99.90;;;;;;5025548;28;20681;-81
2021/01/04 13:34:26;;;;;;;5.70;2.33;;;3.60;99.90;;;;;;5037350;28;20017;-81
2021/01/04 13:36:54;;;;;;;7.07;2.80;;;3.60;99.90;;;;;;5025437;28;20044;-82
2021/01/04 13:39:20;;;;;;;6.07;2.67;;;3.50;99.90;;;;;;5019286;28;20045;-82
2021/01/04 13:41:50;;;;;;;5.80;2.88;;;3.60;99.90;;;;;;5025296;28;20037;-81